La Grande, OR

2:10 AM PDT on September 04, 2015 (GMT -0700)
RAWS | | Change Station
CLOSE
Current Station
Personal Weather Station
Location: La Grande, OR
Elevation: 5180 ft
Nearby Weather Stations

Elev 5180 ft 45.11 °N, 118.40 °W | Updated 42 minutes ago

Clear
Clear
39.0 °F
Feels Like 39.0 °F
N
0.0
Wind Variable Wind from North
Gusts 4.0 mph

Today
High -- | Low -- °F
--% Chance of Precip.
Yesterday
High -- | Low -- °F
Precip. -- in
6:18 AM 7:25 PM
Waning Gibbous, 61% visible
Pressure 29.94 in
Visibility 10.0 miles
Clouds Clear
Dew Point 27.0 °F
Humidity 62%
Rainfall in
Snow Depth Not available.
UV 0 out of 12
Pollen 5.60 out of 12
Air Quality Not available.
Flu Activity Not available.
METAR KLGD 040855Z AUTO 00000KT 10SM CLR 05/M04 A2994 RMK AO1 54000
Pressure 29.94 in
Visibility 10.0 miles
Clouds Clear
Dew Point 27.0 °F
Humidity 62%
Rainfall in
Snow Depth Not available.
UV 0 out of 12
Pollen 5.60 out of 12
Air Quality Not available.
Flu Activity Not available.
METAR KLGD 040855Z AUTO 00000KT 10SM CLR 05/M04 A2994 RMK AO1 54000

10-Day Weather Forecast

×

Almanac

Astronomy

Sep. 04, 2015 Rise Set
Actual Time
Civil Twilight
Nautical Twilight
Astronomical Twilight
Moon
Length of Visible Light
Length of Day
Tomorrow will be .
, % of the Moon is Illuminated

Today's Extremes

State Highs State Lows

Community

WunderPhotos

Upload Photos

1,852,142 photos uploaded!

WunderBlogs® & News

Nearby

Air Quality

  Air Quality AQ Index Pollutant
Not available.

Snow Depth

Station Depth Elevation

Earthquake Activity

City Distance Mag. Time & Date
Minimum magnitude displayed is 2.5.

Coastal Water Temperatures

Place Temperature

Stations

Nearby Weather Stations

Station Location Temp. Windchill Dew Point Humidity Wind Precip. Elev Updated Type